createdAt,value
2018-01-19T00:00:39.793Z,3.33
2018-01-19T00:03:07.006Z,2.28
2018-01-19T00:05:34.244Z,2.15
2018-01-19T00:08:01.496Z,1.80
2018-01-19T00:10:28.735Z,2.42
2018-01-19T00:12:55.963Z,2.90
2018-01-19T00:15:23.189Z,2.72
2018-01-19T00:17:50.418Z,2.10
2018-01-19T00:20:17.895Z,2.53
2018-01-19T00:22:45.871Z,2.22
2018-01-19T00:25:13.889Z,2.22
2018-01-19T00:27:42.077Z,1.90
2018-01-19T00:30:09.650Z,2.70
2018-01-19T00:32:38.438Z,1.90
2018-01-19T00:35:05.706Z,2.33
2018-01-19T00:37:32.921Z,2.62
2018-01-19T00:40:00.154Z,2.20
2018-01-19T00:42:27.373Z,2.50
2018-01-19T00:44:54.601Z,1.55
2018-01-19T00:47:22.341Z,1.77
2018-01-19T00:49:50.177Z,1.58
2018-01-19T00:52:18.927Z,1.67
2018-01-19T00:54:47.308Z,1.95
2018-01-19T00:57:14.526Z,2.10
2018-01-19T00:59:41.748Z,1.75
2018-01-19T01:02:08.969Z,2.45
2018-01-19T01:04:36.193Z,3.35
2018-01-19T01:07:03.427Z,2.30
2018-01-19T01:09:30.865Z,2.00
2018-01-19T01:11:58.107Z,2.17
2018-01-19T01:14:25.325Z,1.80
2018-01-19T01:16:52.555Z,2.60
2018-01-19T01:19:19.764Z,2.30
2018-01-19T01:21:46.989Z,2.40
2018-01-19T01:24:14.221Z,2.12
2018-01-19T01:26:41.443Z,2.75
2018-01-19T01:29:08.657Z,1.77
2018-01-19T01:31:36.290Z,1.73
2018-01-19T01:34:04.422Z,2.55
2018-01-19T01:36:31.669Z,2.60
2018-01-19T01:38:59.003Z,2.10
2018-01-19T01:41:26.240Z,2.03
2018-01-19T01:43:53.461Z,2.35
2018-01-19T01:46:21.528Z,2.40
2018-01-19T01:49:11.328Z,2.53
2018-01-19T01:51:38.565Z,1.73
2018-01-19T01:54:05.766Z,1.37
2018-01-19T01:56:32.983Z,1.30
2018-01-19T01:59:00.193Z,1.50
2018-01-19T02:01:28.068Z,1.65
2018-01-19T02:03:55.274Z,1.62
2018-01-19T02:06:22.495Z,1.30
2018-01-19T02:08:49.712Z,1.33
2018-01-19T02:11:16.932Z,1.20
2018-01-19T02:13:44.139Z,1.20
2018-01-19T02:16:11.351Z,1.20
2018-01-19T02:18:38.563Z,1.60
2018-01-19T02:21:05.783Z,1.10
2018-01-19T02:23:32.996Z,1.20
2018-01-19T02:26:00.237Z,1.60
2018-01-19T02:28:27.433Z,1.35
2018-01-19T02:30:54.655Z,1.73
2018-01-19T02:33:21.859Z,1.37
2018-01-19T02:35:49.072Z,1.50
2018-01-19T02:38:16.753Z,1.25
2018-01-19T02:40:43.952Z,1.75
2018-01-19T02:43:11.178Z,1.75
2018-01-19T02:45:38.393Z,1.83
2018-01-19T02:48:05.605Z,1.60
2018-01-19T02:50:32.821Z,1.27
2018-01-19T02:53:00.042Z,1.70
2018-01-19T02:55:27.364Z,1.95
2018-01-19T02:57:54.591Z,1.50
2018-01-19T03:00:21.820Z,1.80
2018-01-19T03:02:49.035Z,1.70
2018-01-19T03:05:16.249Z,1.90
2018-01-19T03:07:43.481Z,2.37
2018-01-19T03:10:10.676Z,2.12
2018-01-19T03:12:37.899Z,1.77
2018-01-19T03:15:05.104Z,1.23
2018-01-19T03:17:32.324Z,1.60
2018-01-19T03:19:59.528Z,1.62
2018-01-19T03:22:26.747Z,1.50
2018-01-19T03:24:54.193Z,1.37
2018-01-19T03:27:21.411Z,1.30
2018-01-19T03:29:49.293Z,2.10
2018-01-19T03:32:16.503Z,1.23
2018-01-19T03:34:44.153Z,1.40
2018-01-19T03:37:11.380Z,1.60
2018-01-19T03:39:38.602Z,1.20
2018-01-19T03:42:06.149Z,1.00
2018-01-19T03:44:34.150Z,1.62
2018-01-19T03:47:01.348Z,2.03
2018-01-19T03:49:28.566Z,1.35
2018-01-19T03:51:55.784Z,1.20
2018-01-19T03:54:23.009Z,1.67
2018-01-19T03:56:50.224Z,1.10
2018-01-19T03:59:17.443Z,1.23
2018-01-19T04:01:44.652Z,1.30
2018-01-19T04:04:11.865Z,1.52
2018-01-19T04:06:39.078Z,1.50
2018-01-19T04:09:06.324Z,1.75
2018-01-19T04:11:33.501Z,1.50
2018-01-19T04:14:00.720Z,1.40
2018-01-19T04:16:27.939Z,1.33
2018-01-19T04:18:55.167Z,2.00
2018-01-19T04:21:22.386Z,1.70
2018-01-19T04:23:49.599Z,1.67
2018-01-19T04:26:16.812Z,1.87
2018-01-19T04:28:44.023Z,1.30
2018-01-19T04:31:11.247Z,1.55
2018-01-19T04:33:38.470Z,1.40
2018-01-19T04:36:05.673Z,1.23
2018-01-19T04:38:32.891Z,1.20
2018-01-19T04:41:00.101Z,1.45
2018-01-19T04:43:27.315Z,1.20
2018-01-19T04:45:54.545Z,1.42
2018-01-19T04:48:21.748Z,1.12
2018-01-19T04:50:48.975Z,1.23
2018-01-19T04:53:16.214Z,1.70
2018-01-19T04:55:43.600Z,1.70
2018-01-19T04:58:10.795Z,2.05
2018-01-19T05:00:38.011Z,1.70
2018-01-19T05:03:05.219Z,1.10
2018-01-19T05:05:33.323Z,1.52
2018-01-19T05:08:00.542Z,2.00
2018-01-19T05:10:27.774Z,1.50
2018-01-19T05:12:54.990Z,1.35
2018-01-19T05:15:22.203Z,1.55
2018-01-19T05:17:49.420Z,1.62
2018-01-19T05:20:16.648Z,1.95
2018-01-19T05:22:43.871Z,1.52
2018-01-19T05:25:11.096Z,1.40
2018-01-19T05:27:38.308Z,1.20
2018-01-19T05:30:05.537Z,1.62
2018-01-19T05:32:32.748Z,1.20
2018-01-19T05:34:59.969Z,1.20
2018-01-19T05:37:29.202Z,1.67
2018-01-19T05:39:56.405Z,1.35
2018-01-19T05:42:23.607Z,1.40
2018-01-19T05:44:50.829Z,1.30
2018-01-19T05:47:18.039Z,1.50
2018-01-19T05:49:45.261Z,1.17
2018-01-19T05:52:12.468Z,1.50
2018-01-19T05:54:39.760Z,1.83
2018-01-19T05:57:06.967Z,1.40
2018-01-19T05:59:34.250Z,1.20
2018-01-19T06:02:01.468Z,2.05
2018-01-19T06:04:28.680Z,1.40
2018-01-19T06:06:55.900Z,1.40
2018-01-19T06:09:23.116Z,1.30
2018-01-19T06:11:50.400Z,1.25
2018-01-19T06:14:17.617Z,2.22
2018-01-19T06:16:44.844Z,1.30
2018-01-19T06:19:12.044Z,1.05
2018-01-19T06:21:39.301Z,0.98
2018-01-19T06:24:07.203Z,1.40
2018-01-19T06:26:34.425Z,1.37
2018-01-19T06:29:02.448Z,1.10
2018-01-19T06:31:29.677Z,1.30
2018-01-19T06:33:56.904Z,1.33
2018-01-19T06:36:24.159Z,1.10
2018-01-19T06:38:51.384Z,1.87
2018-01-19T06:41:18.669Z,1.40
2018-01-19T06:43:45.886Z,1.10
2018-01-19T06:46:13.103Z,2.00
2018-01-19T06:48:40.312Z,1.40
2018-01-19T06:51:07.534Z,2.00
2018-01-19T06:53:34.751Z,1.75
2018-01-19T06:56:01.976Z,1.60
2018-01-19T06:58:29.188Z,2.40
2018-01-19T07:00:56.417Z,2.15
2018-01-19T07:03:23.629Z,1.70
2018-01-19T07:05:50.897Z,2.12
2018-01-19T07:08:18.119Z,1.70
2018-01-19T07:10:45.325Z,1.70
2018-01-19T07:13:12.551Z,1.87
2018-01-19T07:15:39.763Z,1.75
2018-01-19T07:18:06.984Z,1.62
2018-01-19T07:20:34.193Z,1.48
2018-01-19T07:23:01.427Z,1.70
2018-01-19T07:25:28.638Z,1.02
2018-01-19T07:27:55.865Z,1.20
2018-01-19T07:30:23.075Z,1.05
2018-01-19T07:32:50.299Z,1.45
2018-01-19T07:35:17.508Z,1.20
2018-01-19T07:37:44.723Z,1.45
2018-01-19T07:40:11.952Z,1.60
2018-01-19T07:42:39.168Z,2.55
2018-01-19T07:45:06.376Z,1.25
2018-01-19T07:47:33.601Z,1.10
2018-01-19T07:50:00.815Z,1.20
2018-01-19T07:52:28.038Z,1.02
2018-01-19T07:54:55.268Z,1.25
2018-01-19T07:57:22.471Z,1.40
2018-01-19T07:59:49.684Z,1.50
2018-01-19T08:02:16.911Z,1.20
2018-01-19T08:04:44.111Z,1.40
2018-01-19T08:07:11.336Z,1.42
2018-01-19T08:09:38.549Z,1.30
2018-01-19T08:12:05.759Z,1.23
2018-01-19T08:14:32.979Z,1.50
2018-01-19T08:17:00.203Z,1.25
2018-01-19T08:19:27.420Z,1.05
2018-01-19T08:21:54.632Z,1.25
2018-01-19T08:24:21.879Z,1.35
2018-01-19T08:26:49.074Z,1.17
2018-01-19T08:29:17.008Z,1.20
2018-01-19T08:31:44.216Z,0.90
2018-01-19T08:34:11.439Z,1.10
2018-01-19T08:36:38.654Z,2.47
2018-01-19T08:39:05.882Z,1.98
2018-01-19T08:41:33.109Z,1.70
2018-01-19T08:44:00.324Z,1.20
2018-01-19T08:46:27.574Z,2.00
2018-01-19T08:48:54.820Z,1.70
2018-01-19T08:51:22.031Z,1.30
2018-01-19T08:53:49.259Z,1.45
2018-01-19T08:56:16.560Z,5.10
2018-01-19T08:58:43.781Z,2.67
2018-01-19T09:01:10.994Z,1.70
2018-01-19T09:06:11.965Z,1.95
2018-01-19T09:08:39.192Z,2.08
2018-01-19T09:11:06.412Z,3.17
2018-01-19T09:13:33.631Z,1.60
2018-01-19T09:16:00.840Z,1.55
2018-01-19T09:18:28.059Z,1.62
2018-01-19T09:20:55.278Z,1.60
2018-01-19T09:23:22.484Z,1.40
2018-01-19T09:25:49.703Z,1.45
2018-01-19T09:28:16.920Z,1.20
2018-01-19T09:30:44.137Z,1.02
2018-01-19T09:33:11.343Z,1.30
2018-01-19T09:35:38.567Z,1.35
2018-01-19T09:38:05.776Z,1.17
2018-01-19T09:40:33.010Z,1.25
2018-01-19T09:43:00.338Z,1.33
2018-01-19T09:45:27.550Z,1.42
2018-01-19T09:47:54.768Z,1.20
2018-01-19T09:50:21.998Z,1.10
2018-01-19T09:52:49.207Z,1.58
2018-01-19T09:55:16.424Z,1.40
2018-01-19T09:57:43.638Z,0.80
2018-01-19T10:00:10.856Z,1.75
2018-01-19T10:02:38.072Z,1.02
2018-01-19T10:05:05.363Z,1.10
2018-01-19T10:07:32.572Z,1.20
2018-01-19T10:09:59.791Z,1.33
2018-01-19T10:12:27.012Z,1.60
2018-01-19T10:14:54.232Z,1.65
2018-01-19T10:17:21.439Z,1.45
2018-01-19T10:19:48.665Z,1.10
2018-01-19T10:22:16.227Z,1.15
2018-01-19T10:24:43.428Z,1.40
2018-01-19T10:27:10.706Z,1.65
2018-01-19T10:29:37.904Z,1.75
2018-01-19T10:32:05.129Z,1.40
2018-01-19T10:34:32.340Z,1.98
2018-01-19T10:36:59.561Z,2.20
2018-01-19T10:39:26.772Z,1.50
2018-01-19T10:41:54.003Z,1.58
2018-01-19T10:44:21.203Z,1.60
2018-01-19T10:46:48.428Z,1.80
2018-01-19T10:49:15.720Z,1.60
2018-01-19T10:51:42.899Z,1.85
2018-01-19T10:54:10.108Z,1.30
2018-01-19T10:56:37.327Z,2.42
2018-01-19T10:59:04.572Z,1.55
2018-01-19T11:01:31.779Z,1.50
2018-01-19T11:03:59.504Z,1.92
2018-01-19T11:06:26.731Z,1.42
2018-01-19T11:08:53.942Z,1.70
2018-01-19T11:11:21.157Z,1.30
2018-01-19T11:13:48.367Z,1.60
2018-01-19T11:16:15.588Z,1.05
2018-01-19T11:18:42.803Z,1.30
2018-01-19T11:21:10.035Z,2.00
2018-01-19T11:23:37.259Z,1.60
2018-01-19T11:26:04.471Z,1.45
2018-01-19T11:28:31.700Z,1.60
2018-01-19T11:30:58.942Z,1.65
2018-01-19T11:33:26.175Z,1.60
2018-01-19T11:35:53.404Z,2.45
2018-01-19T11:38:20.663Z,1.48
2018-01-19T11:40:47.880Z,1.50
2018-01-19T11:43:15.118Z,1.35
2018-01-19T11:45:42.320Z,1.70
2018-01-19T11:48:09.552Z,1.50
2018-01-19T11:50:36.770Z,3.00
2018-01-19T11:53:03.984Z,2.45
2018-01-19T11:55:31.200Z,1.70
2018-01-19T11:57:58.421Z,2.22
2018-01-19T12:00:25.644Z,1.60
2018-01-19T12:02:52.866Z,1.75
2018-01-19T12:05:20.080Z,2.12
2018-01-19T12:07:47.303Z,1.40
2018-01-19T12:10:15.416Z,1.70
2018-01-19T12:12:43.584Z,1.60
2018-01-19T12:15:10.802Z,1.45
2018-01-19T12:17:38.037Z,1.27
2018-01-19T12:20:05.249Z,2.12
2018-01-19T12:22:32.472Z,1.60
2018-01-19T12:24:59.709Z,1.45
2018-01-19T12:27:26.944Z,1.80
2018-01-19T12:29:55.278Z,1.35
2018-01-19T12:32:22.660Z,1.30
2018-01-19T12:34:50.701Z,1.25
2018-01-19T12:37:17.910Z,1.33
2018-01-19T12:39:45.634Z,1.30
2018-01-19T12:42:13.742Z,1.40
2018-01-19T12:44:41.763Z,1.50
2018-01-19T12:47:09.052Z,1.40
2018-01-19T12:49:37.176Z,1.50
2018-01-19T12:52:04.394Z,1.55
2018-01-19T12:54:31.607Z,1.20
2018-01-19T12:56:58.824Z,1.85
2018-01-19T12:59:26.044Z,1.27
2018-01-19T13:01:53.259Z,1.40
2018-01-19T13:04:20.483Z,1.62
2018-01-19T13:06:47.691Z,1.30
2018-01-19T13:09:14.954Z,1.80
2018-01-19T13:11:42.193Z,1.25
2018-01-19T13:14:09.520Z,1.55
2018-01-19T13:16:36.732Z,1.60
2018-01-19T13:19:03.964Z,1.27
2018-01-19T13:21:31.179Z,1.10
2018-01-19T13:23:58.408Z,1.95
2018-01-19T13:26:25.623Z,1.30
2018-01-19T13:28:52.861Z,1.67
2018-01-19T13:31:20.086Z,1.00
2018-01-19T13:33:47.312Z,1.20
2018-01-19T13:36:14.524Z,0.90
2018-01-19T13:38:41.755Z,1.37
2018-01-19T13:41:08.975Z,1.55
2018-01-19T13:43:36.204Z,1.33
2018-01-19T13:46:03.436Z,1.17
2018-01-19T13:48:30.665Z,1.65
2018-01-19T13:50:57.912Z,1.42
2018-01-19T13:53:25.121Z,2.25
2018-01-19T13:55:52.335Z,1.52
2018-01-19T13:58:19.566Z,2.08
2018-01-19T14:00:46.807Z,1.48
2018-01-19T14:03:14.024Z,1.40
2018-01-19T14:05:41.245Z,1.75
2018-01-19T14:08:08.530Z,1.40
2018-01-19T14:10:35.752Z,2.62
2018-01-19T14:13:02.976Z,1.80
2018-01-19T14:15:30.204Z,1.75
2018-01-19T14:17:57.419Z,1.80
2018-01-19T14:20:25.452Z,1.75
2018-01-19T14:22:54.286Z,2.60
2018-01-19T14:25:21.611Z,2.20
2018-01-19T14:27:48.974Z,6.60
2018-01-19T14:30:16.298Z,2.47
2018-01-19T14:32:44.623Z,1.55
2018-01-19T14:35:11.852Z,2.35
2018-01-19T14:37:39.571Z,1.73
2018-01-19T14:40:06.796Z,1.30
2018-01-19T14:42:34.011Z,1.80
2018-01-19T14:45:01.230Z,1.55
2018-01-19T14:47:28.440Z,1.85
2018-01-19T14:49:55.682Z,2.00
2018-01-19T14:52:22.884Z,4.25
2018-01-19T14:54:50.104Z,3.90
2018-01-19T14:57:17.318Z,1.95
2018-01-19T14:59:44.539Z,2.25
2018-01-19T15:02:11.760Z,2.65
2018-01-19T15:04:38.990Z,3.42
2018-01-19T15:07:06.188Z,2.70
2018-01-19T15:09:33.404Z,1.90
2018-01-19T15:12:00.857Z,1.30
2018-01-19T15:14:28.059Z,1.30
2018-01-19T15:16:55.275Z,2.17
2018-01-19T15:19:22.491Z,1.60
2018-01-19T15:21:49.711Z,1.40
2018-01-19T15:24:16.924Z,1.60
2018-01-19T15:26:44.972Z,1.40
2018-01-19T15:29:12.283Z,2.10
2018-01-19T15:31:39.737Z,1.27
2018-01-19T15:34:07.681Z,1.30
2018-01-19T15:36:35.315Z,1.50
2018-01-19T15:39:02.540Z,15.90
2018-01-19T15:41:29.760Z,2.50
2018-01-19T15:43:56.976Z,1.60
2018-01-19T15:46:24.197Z,1.75
2018-01-19T15:48:51.419Z,1.45
2018-01-19T15:51:19.549Z,1.50
2018-01-19T15:53:46.764Z,1.75
2018-01-19T15:56:14.705Z,1.50
2018-01-19T15:58:41.922Z,1.73
2018-01-19T16:01:09.144Z,3.40
2018-01-19T16:03:36.366Z,1.90
2018-01-19T16:06:03.587Z,1.85
2018-01-19T16:08:30.804Z,1.60
2018-01-19T16:10:58.032Z,2.35
2018-01-19T16:13:25.247Z,2.15
2018-01-19T16:15:52.474Z,1.60
2018-01-19T16:18:19.692Z,2.20
2018-01-19T16:20:46.947Z,3.12
2018-01-19T16:23:14.137Z,2.05
2018-01-19T16:25:41.340Z,2.67
2018-01-19T16:28:08.568Z,2.70
2018-01-19T16:30:35.789Z,2.83
2018-01-19T16:33:03.013Z,5.68
2018-01-19T16:35:30.239Z,4.78
2018-01-19T16:37:59.389Z,3.85
2018-01-19T16:40:27.419Z,4.35
2018-01-19T16:42:54.652Z,3.85
2018-01-19T16:45:21.884Z,4.50
2018-01-19T16:47:49.109Z,4.40
2018-01-19T16:50:17.607Z,5.82
2018-01-19T16:52:44.816Z,5.12
2018-01-19T16:55:12.022Z,5.50
2018-01-19T16:57:39.254Z,19.17
2018-01-19T17:00:06.463Z,6.32
2018-01-19T17:02:33.683Z,3.37
2018-01-19T17:05:00.900Z,2.97
2018-01-19T17:07:28.239Z,2.97
2018-01-19T17:09:55.451Z,2.50
2018-01-19T17:12:29.140Z,4.97
2018-01-19T17:14:58.735Z,3.65
2018-01-19T17:17:26.792Z,2.60
2018-01-19T17:19:54.003Z,3.37
2018-01-19T17:22:21.231Z,8.45
2018-01-19T17:24:48.455Z,7.90
2018-01-19T17:27:15.759Z,4.75
2018-01-19T17:29:42.995Z,6.53
2018-01-19T17:32:10.262Z,3.87
2018-01-19T17:34:37.456Z,2.60
2018-01-19T17:37:04.677Z,3.00
2018-01-19T17:39:31.900Z,4.32
2018-01-19T17:41:59.116Z,5.47
2018-01-19T17:44:26.340Z,3.00
2018-01-19T17:46:53.561Z,3.37
2018-01-19T17:49:20.780Z,2.72
2018-01-19T17:51:47.992Z,2.10
2018-01-19T17:54:15.219Z,2.35
2018-01-19T17:56:42.424Z,5.72
2018-01-19T17:59:09.647Z,2.80
2018-01-19T18:01:36.872Z,5.10
2018-01-19T18:04:04.139Z,5.07
2018-01-19T18:06:31.364Z,5.30
2018-01-19T18:08:59.207Z,3.22
2018-01-19T18:11:26.423Z,4.90
2018-01-19T18:13:53.652Z,8.00
2018-01-19T18:16:20.879Z,5.70
2018-01-19T18:18:48.096Z,6.20
2018-01-19T18:21:15.336Z,5.47
2018-01-19T18:23:42.780Z,8.35
2018-01-19T18:26:09.995Z,5.97
2018-01-19T18:28:37.212Z,4.90
2018-01-19T18:31:04.423Z,5.75
2018-01-19T18:33:31.659Z,7.72
2018-01-19T18:35:58.876Z,6.90
2018-01-19T18:38:26.111Z,7.40
2018-01-19T18:40:53.320Z,6.82
2018-01-19T18:43:20.559Z,7.30
2018-01-19T18:45:47.763Z,8.32
2018-01-19T18:48:14.972Z,5.32
2018-01-19T18:50:42.196Z,4.90
2018-01-19T18:53:09.414Z,4.90
2018-01-19T18:55:36.635Z,5.25
2018-01-19T18:58:03.849Z,4.70
2018-01-19T19:00:31.117Z,5.85
2018-01-19T19:02:58.320Z,4.75
2018-01-19T19:05:25.587Z,5.25
2018-01-19T19:07:54.296Z,5.40
2018-01-19T19:10:23.645Z,4.82
2018-01-19T19:12:56.155Z,3.90
2018-01-19T19:15:23.685Z,4.12
2018-01-19T19:17:50.921Z,4.50
2018-01-19T19:20:18.579Z,4.43
2018-01-19T19:22:46.272Z,4.35
2018-01-19T19:25:13.526Z,4.65
2018-01-19T19:27:40.728Z,7.10
2018-01-19T19:30:07.997Z,7.90
2018-01-19T19:32:35.199Z,9.52
2018-01-19T19:35:03.886Z,9.43
2018-01-19T19:37:31.509Z,9.95
2018-01-19T19:39:59.283Z,6.55
2018-01-19T19:42:26.532Z,6.60
2018-01-19T19:44:54.905Z,6.50
2018-01-19T19:47:22.148Z,6.57
2018-01-19T19:49:49.346Z,6.32
2018-01-19T19:52:16.634Z,5.43
2018-01-19T19:54:43.840Z,4.47
2018-01-19T19:57:11.116Z,4.60
2018-01-19T19:59:39.096Z,6.57
2018-01-19T20:02:06.320Z,5.12
2018-01-19T20:04:33.587Z,5.05
2018-01-19T20:07:01.616Z,5.80
2018-01-19T20:09:28.871Z,6.75
2018-01-19T20:11:56.478Z,8.10
2018-01-19T20:14:26.973Z,6.60
2018-01-19T20:16:55.890Z,6.75
2018-01-19T20:19:24.188Z,8.25
2018-01-19T20:21:51.523Z,10.18
2018-01-19T20:24:18.737Z,8.40
2018-01-19T20:26:46.753Z,8.73
2018-01-19T20:29:14.005Z,6.72
2018-01-19T20:31:41.220Z,7.32
2018-01-19T20:34:08.445Z,7.62
2018-01-19T20:36:35.685Z,8.88
2018-01-19T20:39:02.944Z,9.82
2018-01-19T20:41:30.194Z,7.30
2018-01-19T20:43:57.450Z,7.05
2018-01-19T20:46:24.748Z,6.18
2018-01-19T20:48:51.990Z,7.20
2018-01-19T20:51:19.207Z,9.73
2018-01-19T20:53:46.418Z,8.60
2018-01-19T20:56:13.691Z,7.62
2018-01-19T20:58:40.943Z,8.30
2018-01-19T21:01:08.164Z,10.10
2018-01-19T21:03:35.395Z,11.75
2018-01-19T21:06:02.680Z,12.55
2018-01-19T21:08:29.943Z,7.20
2018-01-19T21:10:57.198Z,8.45
2018-01-19T21:13:25.334Z,9.30
2018-01-19T21:15:52.582Z,9.90
2018-01-19T21:18:19.837Z,4.30
2018-01-19T21:20:47.078Z,7.32
2018-01-19T21:23:14.291Z,7.72
2018-01-19T21:25:41.551Z,6.80
2018-01-19T21:28:08.767Z,7.18
2018-01-19T21:30:36.996Z,7.18
2018-01-19T21:33:04.463Z,6.47
2018-01-19T21:35:32.299Z,6.45
2018-01-19T21:38:00.278Z,6.45
2018-01-19T21:40:29.175Z,6.37
2018-01-19T21:42:56.431Z,6.18
2018-01-19T21:45:23.684Z,6.07
2018-01-19T21:47:50.942Z,5.60
2018-01-19T21:50:18.992Z,6.35
2018-01-19T21:52:46.250Z,6.87
2018-01-19T21:55:13.506Z,6.62
2018-01-19T21:57:40.770Z,6.32
2018-01-19T22:02:39.685Z,5.57
2018-01-19T22:05:06.961Z,6.57
2018-01-19T22:07:37.807Z,7.00
2018-01-19T22:10:05.066Z,5.53
2018-01-19T22:12:32.234Z,6.65
2018-01-19T22:14:59.507Z,5.95
2018-01-19T22:17:26.869Z,5.82
2018-01-19T22:19:54.129Z,6.00
2018-01-19T22:22:21.826Z,7.62
2018-01-19T22:24:49.023Z,7.12
2018-01-19T22:27:16.307Z,7.07
2018-01-19T22:29:43.594Z,7.18
2018-01-19T22:32:10.783Z,7.05
2018-01-19T22:34:38.002Z,7.53
2018-01-19T22:37:05.269Z,5.70
2018-01-19T22:39:32.568Z,7.32
2018-01-19T22:41:59.812Z,5.82
2018-01-19T22:44:27.088Z,6.50
2018-01-19T22:46:54.354Z,6.05
2018-01-19T22:49:22.215Z,5.70
2018-01-19T22:51:49.423Z,5.85
2018-01-19T22:54:16.697Z,6.00
2018-01-19T22:56:43.888Z,5.53
2018-01-19T22:59:11.133Z,5.00
2018-01-19T23:01:38.399Z,4.78
2018-01-19T23:04:05.605Z,4.97
2018-01-19T23:06:32.868Z,5.53
2018-01-19T23:09:00.074Z,5.50
2018-01-19T23:11:27.291Z,5.30
2018-01-19T23:13:54.569Z,5.55
2018-01-19T23:16:22.449Z,5.35
2018-01-19T23:18:49.731Z,5.45
2018-01-19T23:21:16.990Z,4.28
2018-01-19T23:23:44.279Z,5.85
2018-01-19T23:26:11.533Z,4.65
2018-01-19T23:28:39.263Z,4.43
2018-01-19T23:31:06.538Z,4.15
2018-01-19T23:33:33.985Z,4.12
2018-01-19T23:36:01.238Z,4.20
2018-01-19T23:38:28.469Z,3.75
2018-01-19T23:40:56.437Z,4.72
2018-01-19T23:43:23.656Z,3.75
2018-01-19T23:45:50.884Z,4.20
2018-01-19T23:48:18.137Z,4.05
2018-01-19T23:50:45.417Z,4.00
2018-01-19T23:53:12.655Z,5.85
2018-01-19T23:55:39.918Z,3.90
2018-01-19T23:58:07.115Z,3.58
